createdAt,value
2018-08-12T00:00:26.676Z,101398.11
2018-08-12T00:02:56.295Z,101398.97
2018-08-12T00:05:24.871Z,101395.94
2018-08-12T00:07:53.394Z,101394.23
2018-08-12T00:10:22.380Z,101386.88
2018-08-12T00:12:50.854Z,101392.02
2018-08-12T00:15:21.148Z,101395.03
2018-08-12T00:17:49.671Z,101387.28
2018-08-12T00:20:22.564Z,101382.91
2018-08-12T00:22:51.668Z,101382.13
2018-08-12T00:25:21.724Z,101378.61
2018-08-12T00:27:50.145Z,101377.30
2018-08-12T00:30:19.420Z,101373.81
2018-08-12T00:32:47.873Z,101371.28
2018-08-12T00:35:17.504Z,101369.58
2018-08-12T00:37:45.966Z,101369.16
2018-08-12T00:40:15.680Z,101367.00
2018-08-12T00:42:44.672Z,101365.71
2018-08-12T00:45:17.561Z,101366.14
2018-08-12T00:47:46.319Z,101361.84
2018-08-12T00:50:15.664Z,101360.98
2018-08-12T00:52:44.170Z,101357.97
2018-08-12T00:55:14.276Z,101354.04
2018-08-12T00:57:43.828Z,101356.61
2018-08-12T01:00:16.257Z,101358.33
2018-08-12T01:02:44.712Z,101355.30
2018-08-12T01:05:14.910Z,101351.37
2018-08-12T01:07:44.135Z,101351.72
2018-08-12T01:10:13.169Z,101349.63
2018-08-12T01:12:41.724Z,101339.27
2018-08-12T01:15:13.477Z,101339.57
2018-08-12T01:17:42.278Z,101343.44
2018-08-12T01:20:13.651Z,101338.35
2018-08-12T01:22:42.167Z,101339.25
2018-08-12T01:25:11.483Z,101336.25
2018-08-12T01:27:39.931Z,101330.66
2018-08-12T01:30:13.021Z,101329.36
2018-08-12T01:32:41.678Z,101334.48
2018-08-12T01:35:11.332Z,101341.31
2018-08-12T01:37:40.243Z,101333.59
2018-08-12T01:40:11.045Z,101335.28
2018-08-12T01:42:39.925Z,101332.66
2018-08-12T01:45:09.297Z,101331.74
2018-08-12T01:47:37.727Z,101326.59
2018-08-12T01:50:06.691Z,101324.41
2018-08-12T01:52:35.127Z,101322.69
2018-08-12T01:55:03.623Z,101325.68
2018-08-12T01:57:32.073Z,101322.23
2018-08-12T02:00:00.556Z,101320.03
2018-08-12T02:02:28.979Z,101314.09
2018-08-12T02:04:57.457Z,101313.17
2018-08-12T02:07:25.961Z,101313.13
2018-08-12T02:09:54.432Z,101308.41
2018-08-12T02:12:22.928Z,101306.30
2018-08-12T02:14:51.360Z,101300.68
2018-08-12T02:17:19.803Z,101300.23
2018-08-12T02:19:48.169Z,101298.04
2018-08-12T02:22:16.575Z,101293.73
2018-08-12T02:24:45.073Z,101293.67
2018-08-12T02:27:13.530Z,101286.44
2018-08-12T02:29:41.905Z,101278.72
2018-08-12T02:32:10.312Z,101282.58
2018-08-12T02:34:38.693Z,101280.86
2018-08-12T02:37:07.230Z,101273.06
2018-08-12T02:39:35.588Z,101277.72
2018-08-12T02:42:04.083Z,101268.28
2018-08-12T02:44:32.528Z,101267.39
2018-08-12T02:47:00.962Z,101260.51
2018-08-12T02:49:29.340Z,101258.82
2018-08-12T02:51:57.807Z,101254.97
2018-08-12T02:54:26.193Z,101253.25
2018-08-12T02:56:54.664Z,101252.05
2018-08-12T02:59:23.103Z,101243.41
2018-08-12T03:01:51.787Z,101236.19
2018-08-12T03:04:20.235Z,101234.91
2018-08-12T03:06:48.672Z,101231.03
2018-08-12T03:09:17.057Z,101230.61
2018-08-12T03:11:45.488Z,101225.41
2018-08-12T03:14:13.982Z,101226.63
2018-08-12T03:16:42.402Z,101221.81
2018-08-12T03:19:10.868Z,101225.11
2018-08-12T03:21:39.301Z,101222.06
2018-08-12T03:24:07.758Z,101223.33
2018-08-12T03:26:36.202Z,101218.64
2018-08-12T03:29:04.712Z,101217.77
2018-08-12T03:31:33.102Z,101210.50
2018-08-12T03:34:01.556Z,101210.09
2018-08-12T03:36:30.012Z,101209.66
2018-08-12T03:38:58.436Z,101204.09
2018-08-12T03:41:26.826Z,101204.11
2018-08-12T03:43:55.271Z,101200.25
2018-08-12T03:46:23.692Z,101195.53
2018-08-12T03:48:52.192Z,101192.48
2018-08-12T03:51:20.602Z,101198.47
2018-08-12T03:53:48.992Z,101198.47
2018-08-12T03:56:17.415Z,101201.38
2018-08-12T03:58:45.875Z,101193.66
2018-08-12T04:01:14.295Z,101194.95
2018-08-12T04:03:42.738Z,101194.09
2018-08-12T04:06:11.239Z,101195.82
2018-08-12T04:08:39.609Z,101191.12
2018-08-12T04:11:08.009Z,101187.28
2018-08-12T04:13:36.429Z,101195.84
2018-08-12T04:16:04.888Z,101188.52
2018-08-12T04:18:33.352Z,101183.81
2018-08-12T04:21:01.782Z,101197.47
2018-08-12T04:23:30.240Z,101192.28
2018-08-12T04:25:58.728Z,101190.61
2018-08-12T04:28:27.137Z,101190.60
2018-08-12T04:30:55.532Z,101187.14
2018-08-12T04:33:23.987Z,101180.33
2018-08-12T04:35:52.337Z,101177.28
2018-08-12T04:38:20.749Z,101169.23
2018-08-12T04:40:49.148Z,101166.23
2018-08-12T04:43:17.575Z,101166.27
2018-08-12T04:45:45.971Z,101161.54
2018-08-12T04:48:14.424Z,101163.35
2018-08-12T04:50:42.824Z,101157.79
2018-08-12T04:53:11.302Z,101164.24
2018-08-12T04:55:39.733Z,101160.41
2018-08-12T04:58:08.190Z,101162.11
2018-08-12T05:00:36.599Z,101153.09
2018-08-12T05:03:05.000Z,101159.97
2018-08-12T05:05:33.471Z,101157.48
2018-08-12T05:08:01.868Z,101159.63
2018-08-12T05:10:30.366Z,101158.80
2018-08-12T05:12:58.744Z,101162.75
2018-08-12T05:15:27.260Z,101158.48
2018-08-12T05:17:55.675Z,101165.37
2018-08-12T05:20:24.097Z,101158.58
2018-08-12T05:22:52.485Z,101161.23
2018-08-12T05:25:20.903Z,101163.86
2018-08-12T05:27:49.302Z,101166.88
2018-08-12T05:30:17.717Z,101166.03
2018-08-12T05:32:46.093Z,101163.52
2018-08-12T05:35:14.613Z,101163.97
2018-08-12T05:37:43.500Z,101160.55
2018-08-12T05:40:12.932Z,101153.72
2018-08-12T05:42:41.465Z,101155.03
2018-08-12T05:45:10.736Z,101158.05
2018-08-12T05:47:39.978Z,101149.92
2018-08-12T05:50:09.705Z,101140.92
2018-08-12T05:52:38.156Z,101142.25
2018-08-12T05:55:07.384Z,101143.97
2018-08-12T05:57:35.966Z,101145.72
2018-08-12T06:00:05.356Z,101141.84
2018-08-12T06:02:33.808Z,101138.00
2018-08-12T06:05:02.260Z,101129.03
2018-08-12T06:07:30.728Z,101131.16
2018-08-12T06:09:59.138Z,101130.75
2018-08-12T06:12:27.571Z,101127.30
2018-08-12T06:14:56.003Z,101130.30
2018-08-12T06:17:24.512Z,101088.19
2018-08-12T06:19:52.970Z,101125.99
2018-08-12T06:22:21.377Z,101123.83
2018-08-12T06:24:49.769Z,101120.38
2018-08-12T06:27:18.216Z,101117.36
2018-08-12T06:29:46.620Z,101116.96
2018-08-12T06:32:15.586Z,101113.94
2018-08-12T06:34:44.018Z,101113.93
2018-08-12T06:37:12.587Z,101114.36
2018-08-12T06:39:41.072Z,101119.50
2018-08-12T06:42:09.499Z,101120.36
2018-08-12T06:44:38.021Z,101113.89
2018-08-12T06:47:06.462Z,101108.75
2018-08-12T06:49:35.050Z,101105.70
2018-08-12T06:52:03.594Z,101108.69
2018-08-12T06:54:32.004Z,101105.22
2018-08-12T06:57:00.426Z,101102.16
2018-08-12T06:59:28.913Z,101107.32
2018-08-12T07:01:57.282Z,101108.59
2018-08-12T07:04:25.838Z,101103.82
2018-08-12T07:06:54.251Z,101114.16
2018-08-12T07:09:22.763Z,100937.27
2018-08-12T07:11:51.237Z,101102.84
2018-08-12T07:14:19.715Z,101099.00
2018-08-12T07:16:48.103Z,101099.45
2018-08-12T07:19:16.555Z,101093.80
2018-08-12T07:21:44.994Z,101093.31
2018-08-12T07:24:13.388Z,101088.99
2018-08-12T07:26:41.884Z,101091.11
2018-08-12T07:29:10.285Z,101087.21
2018-08-12T07:31:38.776Z,101086.33
2018-08-12T07:34:07.308Z,101084.13
2018-08-12T07:36:35.713Z,101084.91
2018-08-12T07:39:05.800Z,101079.23
2018-08-12T07:41:34.222Z,101077.80
2018-08-12T07:44:02.681Z,101080.70
2018-08-12T07:46:31.125Z,101072.05
2018-08-12T07:48:59.623Z,101074.14
2018-08-12T07:51:28.070Z,101070.23
2018-08-12T07:53:56.452Z,101067.55
2018-08-12T07:56:24.936Z,101067.47
2018-08-12T07:58:53.451Z,101056.22
2018-08-12T08:01:21.971Z,101054.02
2018-08-12T08:03:50.429Z,101055.72
2018-08-12T08:06:19.031Z,101051.00
2018-08-12T08:08:47.441Z,101053.05
2018-08-12T08:11:15.805Z,101046.94
2018-08-12T08:13:44.312Z,101048.14
2018-08-12T08:16:12.725Z,101041.98
2018-08-12T08:18:41.219Z,101049.75
2018-08-12T08:21:09.663Z,101048.05
2018-08-12T08:23:38.117Z,101048.94
2018-08-12T08:26:06.623Z,101050.73
2018-08-12T08:28:35.151Z,101046.91
2018-08-12T08:31:03.588Z,101047.91
2018-08-12T08:33:32.024Z,101047.83
2018-08-12T08:36:00.496Z,101043.81
2018-08-12T08:38:28.984Z,101042.98
2018-08-12T08:40:57.430Z,101043.72
2018-08-12T08:43:25.859Z,101041.12
2018-08-12T08:45:54.346Z,101035.06
2018-08-12T08:48:22.796Z,101034.97
2018-08-12T08:50:51.261Z,101032.33
2018-08-12T08:53:19.721Z,101027.09
2018-08-12T08:55:48.319Z,101025.72
2018-08-12T08:58:16.732Z,101024.79
2018-08-12T09:00:45.454Z,101022.04
2018-08-12T09:03:13.983Z,101021.84
2018-08-12T09:05:42.509Z,101016.57
2018-08-12T09:08:11.099Z,101017.75
2018-08-12T09:10:39.416Z,101011.83
2018-08-12T09:13:08.040Z,101008.38
2018-08-12T09:15:36.546Z,101006.58
2018-08-12T09:18:05.245Z,101011.23
2018-08-12T09:20:33.703Z,101009.11
2018-08-12T09:23:02.182Z,101004.34
2018-08-12T09:25:30.629Z,101005.22
2018-08-12T09:27:59.097Z,101002.09
2018-08-12T09:30:27.520Z,101000.77
2018-08-12T09:32:55.942Z,100990.59
2018-08-12T09:35:24.446Z,100990.02
2018-08-12T09:37:52.900Z,100988.22
2018-08-12T09:40:21.336Z,100981.52
2018-08-12T09:42:50.796Z,100981.38
2018-08-12T09:45:20.744Z,100979.53
2018-08-12T09:47:49.228Z,100973.92
2018-08-12T09:50:19.025Z,100978.43
2018-08-12T09:52:48.483Z,100973.20
2018-08-12T09:55:17.533Z,100965.73
2018-08-12T09:57:45.974Z,100961.91
2018-08-12T10:00:20.961Z,100960.95
2018-08-12T10:02:50.468Z,100965.44
2018-08-12T10:05:19.333Z,100958.98
2018-08-12T10:07:47.816Z,100953.63
2018-08-12T10:10:16.807Z,100950.39
2018-08-12T10:12:45.435Z,100951.85
2018-08-12T10:15:14.717Z,100952.59
2018-08-12T10:17:44.767Z,100945.77
2018-08-12T10:20:13.308Z,100944.50
2018-08-12T10:22:41.848Z,100938.27
2018-08-12T10:25:10.671Z,100929.71
2018-08-12T10:27:39.192Z,100930.07
2018-08-12T10:30:10.894Z,100929.17
2018-08-12T10:32:39.667Z,100926.46
2018-08-12T10:35:09.424Z,100917.95
2018-08-12T10:37:37.980Z,100918.03
2018-08-12T10:40:08.897Z,100912.75
2018-08-12T10:42:37.328Z,100912.75
2018-08-12T10:47:49.164Z,100910.94
2018-08-12T10:50:19.873Z,100904.30
2018-08-12T10:52:49.132Z,100899.83
2018-08-12T10:55:19.317Z,100896.98
2018-08-12T10:57:49.212Z,100891.01
2018-08-12T11:00:22.097Z,100896.88
2018-08-12T11:02:50.686Z,100896.53
2018-08-12T11:05:19.160Z,100886.64
2018-08-12T11:07:50.499Z,100880.77
2018-08-12T11:10:19.057Z,100875.21
2018-08-12T11:12:48.834Z,100875.72
2018-08-12T11:15:19.338Z,100869.45
2018-08-12T11:17:47.846Z,100872.15
2018-08-12T11:20:16.300Z,100870.78
2018-08-12T11:22:44.748Z,100871.58
2018-08-12T11:27:41.227Z,100867.04
2018-08-12T11:30:11.480Z,100869.17
2018-08-12T11:32:40.370Z,100867.47
2018-08-12T11:35:10.688Z,100865.72
2018-08-12T11:37:39.694Z,100851.69
2018-08-12T11:40:09.522Z,100853.16
2018-08-12T11:45:07.820Z,100840.67
2018-08-12T11:47:36.446Z,100832.34
2018-08-12T11:50:06.081Z,100829.84
2018-08-12T11:52:34.522Z,100828.48
2018-08-12T11:55:03.062Z,100826.52
2018-08-12T11:57:31.537Z,100814.67
2018-08-12T11:59:59.994Z,100817.63
2018-08-12T12:02:28.583Z,100808.38
2018-08-12T12:04:57.026Z,100804.77
2018-08-12T12:07:25.472Z,100805.22
2018-08-12T12:09:54.809Z,100801.90
2018-08-12T12:12:23.880Z,100795.72
2018-08-12T12:14:52.949Z,100788.77
2018-08-12T12:17:21.751Z,100790.59
2018-08-12T12:19:50.175Z,100791.88
2018-08-12T12:22:19.611Z,100793.33
2018-08-12T12:24:48.064Z,100789.00
2018-08-12T12:27:16.587Z,100778.59
2018-08-12T12:29:45.053Z,100777.91
2018-08-12T12:32:13.629Z,100773.25
2018-08-12T12:34:42.503Z,100770.58
2018-08-12T12:37:11.161Z,100759.27
2018-08-12T12:39:39.589Z,100767.05
2018-08-12T12:42:08.168Z,100757.66
2018-08-12T12:44:36.600Z,100753.26
2018-08-12T12:47:05.117Z,100733.36
2018-08-12T12:49:33.589Z,100729.17
2018-08-12T12:52:01.996Z,100726.80
2018-08-12T12:54:30.471Z,100722.88
2018-08-12T12:56:59.075Z,100723.66
2018-08-12T12:59:27.652Z,100720.84
2018-08-12T13:01:56.119Z,100716.99
2018-08-12T13:04:25.217Z,100714.38
2018-08-12T13:06:56.398Z,100706.26
2018-08-12T13:09:25.743Z,100701.86
2018-08-12T13:11:55.955Z,100697.08
2018-08-12T13:14:24.528Z,100694.26
2018-08-12T13:16:53.041Z,100685.06
2018-08-12T13:19:21.548Z,100687.03
2018-08-12T13:21:50.006Z,100685.42
2018-08-12T13:24:18.454Z,100688.56
2018-08-12T13:26:46.941Z,100683.75
2018-08-12T13:29:15.448Z,100674.36
2018-08-12T13:31:43.972Z,100671.91
2018-08-12T13:34:12.546Z,100659.29
2018-08-12T13:36:40.984Z,100654.42
2018-08-12T13:39:11.532Z,100661.84
2018-08-12T13:41:40.014Z,100651.32
2018-08-12T13:44:08.521Z,100654.48
2018-08-12T13:46:37.048Z,100653.08
2018-08-12T13:49:05.715Z,100652.44
2018-08-12T13:51:34.210Z,100650.67
2018-08-12T13:54:02.748Z,100645.57
2018-08-12T13:56:31.366Z,100644.47
2018-08-12T13:58:59.956Z,100634.09
2018-08-12T14:01:28.392Z,100633.65
2018-08-12T14:03:56.812Z,100621.51
2018-08-12T14:06:25.472Z,100621.88
2018-08-12T14:08:53.955Z,100614.00
2018-08-12T14:11:22.426Z,100611.52
2018-08-12T14:13:51.004Z,100602.13
2018-08-12T14:16:19.383Z,100591.73
2018-08-12T14:18:47.872Z,100588.22
2018-08-12T14:21:16.394Z,100587.63
2018-08-12T14:23:44.777Z,100587.70
2018-08-12T14:26:13.460Z,100582.03
2018-08-12T14:28:42.049Z,100576.30
2018-08-12T14:31:12.189Z,100581.61
2018-08-12T14:33:40.890Z,100571.31
2018-08-12T14:36:09.409Z,100566.44
2018-08-12T14:38:37.848Z,100563.55
2018-08-12T14:41:06.361Z,100559.23
2018-08-12T14:43:34.896Z,100556.44
2018-08-12T14:46:03.770Z,100554.64
2018-08-12T14:48:32.225Z,100549.73
2018-08-12T14:51:01.051Z,100548.05
2018-08-12T14:53:29.508Z,100548.75
2018-08-12T14:55:58.170Z,100535.24
2018-08-12T14:58:26.720Z,100532.44
2018-08-12T15:00:55.241Z,100527.66
2018-08-12T15:03:23.759Z,100525.88
2018-08-12T15:05:52.369Z,100524.25
2018-08-12T15:08:20.909Z,100521.36
2018-08-12T15:10:49.360Z,100511.45
2018-08-12T15:13:17.881Z,100507.69
2018-08-12T15:15:46.432Z,100504.61
2018-08-12T15:18:15.163Z,100512.27
2018-08-12T15:20:43.797Z,100503.78
2018-08-12T15:23:12.391Z,100503.23
2018-08-12T15:25:40.907Z,100501.30
2018-08-12T15:28:09.636Z,100493.50
2018-08-12T15:30:38.324Z,100494.25
2018-08-12T15:33:07.100Z,100495.38
2018-08-12T15:35:40.829Z,100493.56
2018-08-12T15:38:09.566Z,100493.94
2018-08-12T15:40:38.163Z,100492.13
2018-08-12T15:43:06.809Z,100488.91
2018-08-12T15:45:35.461Z,100490.78
2018-08-12T15:48:05.299Z,100487.47
2018-08-12T15:50:34.093Z,100486.66
2018-08-12T15:53:02.596Z,100487.52
2018-08-12T15:55:31.312Z,100478.17
2018-08-12T15:57:59.921Z,100482.77
2018-08-12T16:00:29.817Z,100483.56
2018-08-12T16:02:58.357Z,100476.10
2018-08-12T16:05:26.937Z,100478.75
2018-08-12T16:07:55.448Z,100473.57
2018-08-12T16:10:24.565Z,100470.86
2018-08-12T16:12:54.082Z,100467.27
2018-08-12T16:15:23.120Z,100468.80
2018-08-12T16:17:52.121Z,100469.23
2018-08-12T16:20:20.652Z,100459.75
2018-08-12T16:22:49.222Z,100452.77
2018-08-12T16:25:19.174Z,100453.61
2018-08-12T16:27:47.708Z,100453.80
2018-08-12T16:30:17.610Z,100453.61
2018-08-12T16:32:46.285Z,100444.99
2018-08-12T16:35:16.023Z,100440.34
2018-08-12T16:37:45.184Z,100443.44
2018-08-12T16:40:16.847Z,100439.82
2018-08-12T16:42:45.898Z,100426.31
2018-08-12T16:45:15.368Z,100431.00
2018-08-12T16:47:44.466Z,100427.43
2018-08-12T16:50:13.192Z,100425.19
2018-08-12T16:52:42.118Z,100424.63
2018-08-12T16:55:12.787Z,100416.44
2018-08-12T16:57:41.634Z,100412.41
2018-08-12T17:00:16.601Z,100412.78
2018-08-12T17:02:45.770Z,100412.22
2018-08-12T17:05:16.520Z,100405.00
2018-08-12T17:07:45.240Z,100408.94
2018-08-12T17:10:14.704Z,100404.16
2018-08-12T17:12:43.305Z,100403.59
2018-08-12T17:15:13.960Z,100400.87
2018-08-12T17:17:42.590Z,100390.39
2018-08-12T17:20:12.884Z,100387.67
2018-08-12T17:22:42.290Z,100388.52
2018-08-12T17:25:10.792Z,100385.96
2018-08-12T17:27:39.259Z,100386.52
2018-08-12T17:30:09.327Z,100374.30
2018-08-12T17:32:38.073Z,100376.74
2018-08-12T17:35:07.959Z,100368.05
2018-08-12T17:37:36.480Z,100365.61
2018-08-12T17:40:07.736Z,100360.36
2018-08-12T17:42:36.358Z,100358.48
2018-08-12T17:45:06.167Z,100353.20
2018-08-12T17:47:34.636Z,100351.50
2018-08-12T17:50:03.925Z,100352.40
2018-08-12T17:52:32.586Z,100345.36
2018-08-12T17:55:01.177Z,100345.26
2018-08-12T17:57:30.093Z,100341.94
2018-08-12T17:59:58.627Z,100328.70
2018-08-12T18:02:27.100Z,100343.13
2018-08-12T18:04:55.585Z,100340.83
2018-08-12T18:07:24.288Z,100343.69
2018-08-12T18:09:52.826Z,100344.33
2018-08-12T18:12:21.496Z,100345.20
2018-08-12T18:14:50.101Z,100352.69
2018-08-12T18:17:18.655Z,100349.02
2018-08-12T18:19:47.261Z,100347.22
2018-08-12T18:22:15.744Z,100348.38
2018-08-12T18:24:44.378Z,100349.95
2018-08-12T18:27:12.996Z,100350.38
2018-08-12T18:29:41.540Z,100345.36
2018-08-12T18:32:10.102Z,100349.00
2018-08-12T18:34:38.603Z,100336.63
2018-08-12T18:37:07.318Z,100333.47
2018-08-12T18:39:35.760Z,100347.28
2018-08-12T18:42:04.298Z,100347.50
2018-08-12T18:44:32.700Z,100345.73
2018-08-12T18:47:01.134Z,100347.77
2018-08-12T18:49:29.977Z,100351.94
2018-08-12T18:51:58.510Z,100347.00
2018-08-12T18:54:27.102Z,100342.56
2018-08-12T18:56:55.826Z,100345.97
2018-08-12T18:59:24.276Z,100346.73
2018-08-12T19:01:52.757Z,100343.59
2018-08-12T19:04:21.200Z,100344.81
2018-08-12T19:06:50.448Z,100354.28
2018-08-12T19:09:19.534Z,100355.50
2018-08-12T19:11:48.015Z,100350.17
2018-08-12T19:14:16.545Z,100347.56
2018-08-12T19:16:45.085Z,100350.62
2018-08-12T19:19:14.156Z,100353.62
2018-08-12T19:21:42.650Z,100358.92
2018-08-12T19:24:11.140Z,100362.66
2018-08-12T19:26:39.633Z,100356.97
2018-08-12T19:29:08.459Z,100359.27
2018-08-12T19:31:36.943Z,100362.38
2018-08-12T19:34:05.512Z,100362.69
2018-08-12T19:36:34.027Z,100360.65
2018-08-12T19:39:02.587Z,100366.44
2018-08-12T19:41:31.023Z,100358.79
2018-08-12T19:43:59.486Z,100363.00
2018-08-12T19:46:28.064Z,100365.13
2018-08-12T19:48:56.550Z,100365.00
2018-08-12T19:51:25.046Z,100362.53
2018-08-12T19:53:53.509Z,100357.25
2018-08-12T19:56:22.060Z,100361.59
2018-08-12T19:58:50.477Z,100357.61
2018-08-12T20:01:19.008Z,100355.14
2018-08-12T20:03:47.458Z,100359.85
2018-08-12T20:06:15.921Z,100354.63
2018-08-12T20:08:45.046Z,100357.76
2018-08-12T20:11:13.814Z,100349.80
2018-08-12T20:13:42.306Z,100347.78
2018-08-12T20:16:11.106Z,100350.24
2018-08-12T20:18:39.807Z,100352.45
2018-08-12T20:21:08.219Z,100356.05
2018-08-12T20:23:37.428Z,100359.81
2018-08-12T20:26:05.944Z,100356.00
2018-08-12T20:28:35.050Z,100343.74
2018-08-12T20:31:03.596Z,100342.64
2018-08-12T20:33:32.133Z,100336.72
2018-08-12T20:36:00.576Z,100333.00
2018-08-12T20:38:29.696Z,100330.02
2018-08-12T20:40:58.615Z,100330.80
2018-08-12T20:43:27.160Z,100326.65
2018-08-12T20:45:55.700Z,100321.45
2018-08-12T20:48:24.579Z,100319.81
2018-08-12T20:50:53.048Z,100320.27
2018-08-12T20:53:21.479Z,100320.12
2018-08-12T20:55:50.174Z,100322.22
2018-08-12T20:58:18.665Z,100316.98
2018-08-12T21:00:47.104Z,100315.98
2018-08-12T21:03:15.982Z,100315.83
2018-08-12T21:05:44.460Z,100320.28
2018-08-12T21:08:12.940Z,100318.55
2018-08-12T21:10:41.439Z,100324.59
2018-08-12T21:13:10.892Z,100323.92
2018-08-12T21:15:39.383Z,100314.23
2018-08-12T21:18:07.809Z,100313.38
2018-08-12T21:20:36.490Z,100315.31
2018-08-12T21:23:05.023Z,100311.09
2018-08-12T21:25:33.612Z,100309.91
2018-08-12T21:28:02.815Z,100310.42
2018-08-12T21:30:31.264Z,100304.83
2018-08-12T21:32:59.780Z,100297.95
2018-08-12T21:35:28.928Z,100295.81
2018-08-12T21:37:57.363Z,100295.50
2018-08-12T21:40:25.871Z,100297.19
2018-08-12T21:42:54.317Z,100294.02
2018-08-12T21:45:22.763Z,100293.38
2018-08-12T21:47:51.237Z,100292.98
2018-08-12T21:50:19.614Z,100281.73
2018-08-12T21:52:48.141Z,100280.48
2018-08-12T21:55:16.517Z,100278.46
2018-08-12T21:57:45.079Z,100280.33
2018-08-12T22:00:15.183Z,100274.41
2018-08-12T22:02:44.839Z,100277.73
2018-08-12T22:05:14.100Z,100272.53
2018-08-12T22:07:42.540Z,100272.25
2018-08-12T22:10:11.082Z,100273.09
2018-08-12T22:12:40.044Z,100270.77
2018-08-12T22:15:09.172Z,100269.02
2018-08-12T22:17:38.243Z,100270.83
2018-08-12T22:20:06.791Z,100262.10
2018-08-12T22:22:35.219Z,100265.47
2018-08-12T22:25:03.745Z,100256.94
2018-08-12T22:27:33.194Z,100259.94
2018-08-12T22:30:01.643Z,100255.94
2018-08-12T22:32:30.107Z,100258.09
2018-08-12T22:34:58.526Z,100248.47
2018-08-12T22:37:26.980Z,100250.55
2018-08-12T22:39:55.447Z,100232.75
2018-08-12T22:42:23.923Z,100248.00
2018-08-12T22:44:52.482Z,100246.38
2018-08-12T22:47:20.938Z,100239.88
2018-08-12T22:49:49.376Z,100242.68
2018-08-12T22:52:17.805Z,100238.69
2018-08-12T22:54:46.212Z,100229.52
2018-08-12T22:57:14.709Z,100238.34
2018-08-12T22:59:43.194Z,100244.27
2018-08-12T23:02:11.656Z,100246.22
2018-08-12T23:04:40.119Z,100248.96
2018-08-12T23:07:08.559Z,100241.44
2018-08-12T23:09:37.340Z,100236.70
2018-08-12T23:12:05.948Z,100240.55
2018-08-12T23:14:34.576Z,100240.45
2018-08-12T23:17:03.396Z,100235.80
2018-08-12T23:19:32.101Z,100233.61
2018-08-12T23:22:00.607Z,100224.58
2018-08-12T23:24:29.059Z,100224.38
2018-08-12T23:26:57.469Z,100124.34
2018-08-12T23:29:25.876Z,100205.33
2018-08-12T23:31:54.295Z,100203.33
2018-08-12T23:34:22.683Z,100204.18
2018-08-12T23:36:51.143Z,100211.27
2018-08-12T23:39:19.575Z,100208.84
2018-08-12T23:41:48.980Z,100198.39
2018-08-12T23:44:17.459Z,100190.81
2018-08-12T23:46:46.247Z,100182.45
2018-08-12T23:49:14.775Z,100175.92
2018-08-12T23:51:43.213Z,100178.80
2018-08-12T23:54:11.704Z,100177.41
2018-08-12T23:56:40.142Z,100168.00
2018-08-12T23:59:08.841Z,100163.56
